sensor_id;sensor_type;location;lat;lon;timestamp;P1;durP1;ratioP1;P2;durP2;ratioP2
13267;SDS011;6702;47.068;15.458;2022-11-20T00:02:26;25.73;;;18.27;;
13267;SDS011;6702;47.068;15.458;2022-11-20T00:05:31;27.13;;;18.30;;
13267;SDS011;6702;47.068;15.458;2022-11-20T00:08:36;23.83;;;17.83;;
13267;SDS011;6702;47.068;15.458;2022-11-20T00:11:39;25.00;;;17.80;;
13267;SDS011;6702;47.068;15.458;2022-11-20T00:14:42;26.17;;;17.93;;
13267;SDS011;6702;47.068;15.458;2022-11-20T00:17:45;32.43;;;19.67;;
13267;SDS011;6702;47.068;15.458;2022-11-20T00:20:49;26.87;;;19.03;;
13267;SDS011;6702;47.068;15.458;2022-11-20T00:23:53;26.00;;;17.83;;
13267;SDS011;6702;47.068;15.458;2022-11-20T00:26:58;23.80;;;16.80;;
13267;SDS011;6702;47.068;15.458;2022-11-20T00:30:01;21.43;;;14.93;;
13267;SDS011;6702;47.068;15.458;2022-11-20T00:33:04;22.27;;;15.70;;
13267;SDS011;6702;47.068;15.458;2022-11-20T00:36:08;20.80;;;15.10;;
13267;SDS011;6702;47.068;15.458;2022-11-20T00:39:13;19.23;;;13.30;;
13267;SDS011;6702;47.068;15.458;2022-11-20T00:42:16;19.37;;;14.30;;
13267;SDS011;6702;47.068;15.458;2022-11-20T00:45:20;19.17;;;14.00;;
13267;SDS011;6702;47.068;15.458;2022-11-20T00:48:23;19.47;;;13.27;;
13267;SDS011;6702;47.068;15.458;2022-11-20T00:51:26;17.43;;;12.63;;
13267;SDS011;6702;47.068;15.458;2022-11-20T00:54:31;20.40;;;13.87;;
13267;SDS011;6702;47.068;15.458;2022-11-20T00:57:34;22.63;;;14.13;;
13267;SDS011;6702;47.068;15.458;2022-11-20T01:00:37;20.47;;;14.97;;
13267;SDS011;6702;47.068;15.458;2022-11-20T01:03:41;22.90;;;16.80;;
13267;SDS011;6702;47.068;15.458;2022-11-20T01:06:45;22.83;;;16.90;;
13267;SDS011;6702;47.068;15.458;2022-11-20T01:09:50;24.40;;;17.40;;
13267;SDS011;6702;47.068;15.458;2022-11-20T01:12:53;26.73;;;18.30;;
13267;SDS011;6702;47.068;15.458;2022-11-20T01:16:10;27.67;;;19.60;;
13267;SDS011;6702;47.068;15.458;2022-11-20T01:19:16;30.07;;;18.30;;
13267;SDS011;6702;47.068;15.458;2022-11-20T01:22:22;27.90;;;17.77;;
13267;SDS011;6702;47.068;15.458;2022-11-20T01:25:26;22.43;;;16.67;;
13267;SDS011;6702;47.068;15.458;2022-11-20T01:28:30;28.33;;;19.47;;
13267;SDS011;6702;47.068;15.458;2022-11-20T01:31:34;29.10;;;18.70;;
13267;SDS011;6702;47.068;15.458;2022-11-20T01:34:38;25.10;;;17.33;;
13267;SDS011;6702;47.068;15.458;2022-11-20T01:37:41;22.97;;;17.90;;
13267;SDS011;6702;47.068;15.458;2022-11-20T01:40:46;24.57;;;18.07;;
13267;SDS011;6702;47.068;15.458;2022-11-20T01:43:56;25.47;;;17.30;;
13267;SDS011;6702;47.068;15.458;2022-11-20T01:46:59;26.93;;;16.27;;
13267;SDS011;6702;47.068;15.458;2022-11-20T01:50:10;27.33;;;17.63;;
13267;SDS011;6702;47.068;15.458;2022-11-20T01:53:17;25.17;;;18.40;;
13267;SDS011;6702;47.068;15.458;2022-11-20T01:56:25;23.93;;;17.63;;
13267;SDS011;6702;47.068;15.458;2022-11-20T01:59:29;24.67;;;16.50;;
13267;SDS011;6702;47.068;15.458;2022-11-20T02:02:33;25.00;;;18.73;;
13267;SDS011;6702;47.068;15.458;2022-11-20T02:05:38;21.40;;;15.93;;
13267;SDS011;6702;47.068;15.458;2022-11-20T02:08:45;28.13;;;19.47;;
13267;SDS011;6702;47.068;15.458;2022-11-20T02:11:49;26.27;;;18.00;;
13267;SDS011;6702;47.068;15.458;2022-11-20T02:14:53;25.00;;;16.73;;
13267;SDS011;6702;47.068;15.458;2022-11-20T02:17:55;23.40;;;16.20;;
13267;SDS011;6702;47.068;15.458;2022-11-20T02:20:59;20.87;;;15.70;;
13267;SDS011;6702;47.068;15.458;2022-11-20T02:24:10;21.17;;;15.93;;
13267;SDS011;6702;47.068;15.458;2022-11-20T02:27:16;22.73;;;16.27;;
13267;SDS011;6702;47.068;15.458;2022-11-20T02:30:20;19.77;;;14.50;;
13267;SDS011;6702;47.068;15.458;2022-11-20T02:33:24;20.33;;;15.03;;
13267;SDS011;6702;47.068;15.458;2022-11-20T02:36:27;20.00;;;14.57;;
13267;SDS011;6702;47.068;15.458;2022-11-20T02:39:34;20.20;;;13.30;;
13267;SDS011;6702;47.068;15.458;2022-11-20T02:42:37;17.40;;;14.90;;
13267;SDS011;6702;47.068;15.458;2022-11-20T02:45:40;21.03;;;14.17;;
13267;SDS011;6702;47.068;15.458;2022-11-20T02:48:43;18.93;;;13.60;;
13267;SDS011;6702;47.068;15.458;2022-11-20T02:51:47;15.03;;;11.60;;
13267;SDS011;6702;47.068;15.458;2022-11-20T02:54:51;16.70;;;12.70;;
13267;SDS011;6702;47.068;15.458;2022-11-20T02:57:55;14.57;;;12.07;;
13267;SDS011;6702;47.068;15.458;2022-11-20T03:00:58;20.53;;;14.03;;
13267;SDS011;6702;47.068;15.458;2022-11-20T03:04:01;13.87;;;10.83;;
13267;SDS011;6702;47.068;15.458;2022-11-20T03:07:04;17.97;;;13.37;;
13267;SDS011;6702;47.068;15.458;2022-11-20T03:10:09;22.53;;;13.77;;
13267;SDS011;6702;47.068;15.458;2022-11-20T03:13:12;19.43;;;13.60;;
13267;SDS011;6702;47.068;15.458;2022-11-20T03:16:16;13.77;;;10.47;;
13267;SDS011;6702;47.068;15.458;2022-11-20T03:19:21;19.10;;;12.10;;
13267;SDS011;6702;47.068;15.458;2022-11-20T03:22:24;12.67;;;10.30;;
13267;SDS011;6702;47.068;15.458;2022-11-20T03:25:28;16.97;;;11.60;;
13267;SDS011;6702;47.068;15.458;2022-11-20T03:28:31;15.03;;;11.30;;
13267;SDS011;6702;47.068;15.458;2022-11-20T03:31:36;15.00;;;11.63;;
13267;SDS011;6702;47.068;15.458;2022-11-20T03:34:41;13.70;;;10.80;;
13267;SDS011;6702;47.068;15.458;2022-11-20T03:37:44;13.50;;;10.90;;
13267;SDS011;6702;47.068;15.458;2022-11-20T03:40:49;19.03;;;12.50;;
13267;SDS011;6702;47.068;15.458;2022-11-20T03:43:53;13.40;;;10.13;;
13267;SDS011;6702;47.068;15.458;2022-11-20T03:46:57;14.10;;;10.60;;
13267;SDS011;6702;47.068;15.458;2022-11-20T03:50:00;16.70;;;10.70;;
13267;SDS011;6702;47.068;15.458;2022-11-20T03:53:03;15.77;;;11.87;;
13267;SDS011;6702;47.068;15.458;2022-11-20T03:56:08;16.80;;;12.00;;
13267;SDS011;6702;47.068;15.458;2022-11-20T03:59:11;16.40;;;11.70;;
13267;SDS011;6702;47.068;15.458;2022-11-20T04:02:15;14.80;;;12.00;;
13267;SDS011;6702;47.068;15.458;2022-11-20T04:05:18;17.20;;;10.83;;
13267;SDS011;6702;47.068;15.458;2022-11-20T04:08:21;12.00;;;10.27;;
13267;SDS011;6702;47.068;15.458;2022-11-20T04:11:26;17.37;;;11.87;;
13267;SDS011;6702;47.068;15.458;2022-11-20T04:14:30;14.03;;;9.73;;
13267;SDS011;6702;47.068;15.458;2022-11-20T04:17:33;12.73;;;9.30;;
13267;SDS011;6702;47.068;15.458;2022-11-20T04:20:36;17.60;;;11.77;;
13267;SDS011;6702;47.068;15.458;2022-11-20T04:23:39;11.37;;;10.10;;
13267;SDS011;6702;47.068;15.458;2022-11-20T04:26:44;11.27;;;9.23;;
13267;SDS011;6702;47.068;15.458;2022-11-20T04:29:47;13.27;;;10.20;;
13267;SDS011;6702;47.068;15.458;2022-11-20T04:32:50;11.90;;;9.80;;
13267;SDS011;6702;47.068;15.458;2022-11-20T04:35:54;12.17;;;9.40;;
13267;SDS011;6702;47.068;15.458;2022-11-20T04:38:58;13.13;;;9.97;;
13267;SDS011;6702;47.068;15.458;2022-11-20T04:42:04;12.10;;;9.43;;
13267;SDS011;6702;47.068;15.458;2022-11-20T04:45:24;10.90;;;9.00;;
13267;SDS011;6702;47.068;15.458;2022-11-20T04:48:28;14.13;;;9.00;;
13267;SDS011;6702;47.068;15.458;2022-11-20T04:51:31;11.90;;;9.30;;
13267;SDS011;6702;47.068;15.458;2022-11-20T04:54:35;15.37;;;10.40;;
13267;SDS011;6702;47.068;15.458;2022-11-20T04:57:39;12.07;;;10.47;;
13267;SDS011;6702;47.068;15.458;2022-11-20T05:00:42;12.30;;;10.20;;
13267;SDS011;6702;47.068;15.458;2022-11-20T05:03:46;11.73;;;8.63;;
13267;SDS011;6702;47.068;15.458;2022-11-20T05:06:49;13.03;;;10.43;;
13267;SDS011;6702;47.068;15.458;2022-11-20T05:09:52;11.37;;;9.43;;
13267;SDS011;6702;47.068;15.458;2022-11-20T05:12:57;10.10;;;8.60;;
13267;SDS011;6702;47.068;15.458;2022-11-20T05:16:01;11.90;;;9.30;;
13267;SDS011;6702;47.068;15.458;2022-11-20T05:19:05;10.50;;;9.17;;
13267;SDS011;6702;47.068;15.458;2022-11-20T05:22:08;13.87;;;9.93;;
13267;SDS011;6702;47.068;15.458;2022-11-20T05:25:11;12.43;;;9.63;;
13267;SDS011;6702;47.068;15.458;2022-11-20T05:28:16;12.40;;;9.37;;
13267;SDS011;6702;47.068;15.458;2022-11-20T05:31:20;11.47;;;9.43;;
13267;SDS011;6702;47.068;15.458;2022-11-20T05:34:28;11.37;;;9.00;;
13267;SDS011;6702;47.068;15.458;2022-11-20T05:37:31;15.40;;;11.47;;
13267;SDS011;6702;47.068;15.458;2022-11-20T05:40:34;15.57;;;12.60;;
13267;SDS011;6702;47.068;15.458;2022-11-20T05:43:40;17.70;;;12.90;;
13267;SDS011;6702;47.068;15.458;2022-11-20T05:46:44;21.50;;;14.70;;
13267;SDS011;6702;47.068;15.458;2022-11-20T05:49:47;17.43;;;13.40;;
13267;SDS011;6702;47.068;15.458;2022-11-20T05:52:50;18.40;;;12.97;;
13267;SDS011;6702;47.068;15.458;2022-11-20T05:55:57;18.27;;;13.73;;
13267;SDS011;6702;47.068;15.458;2022-11-20T05:59:02;19.00;;;13.80;;
13267;SDS011;6702;47.068;15.458;2022-11-20T06:02:05;22.67;;;15.23;;
13267;SDS011;6702;47.068;15.458;2022-11-20T06:05:08;20.63;;;14.60;;
13267;SDS011;6702;47.068;15.458;2022-11-20T06:08:12;24.90;;;16.40;;
13267;SDS011;6702;47.068;15.458;2022-11-20T06:11:15;23.20;;;16.43;;
13267;SDS011;6702;47.068;15.458;2022-11-20T06:14:20;20.83;;;16.00;;
13267;SDS011;6702;47.068;15.458;2022-11-20T06:17:24;20.70;;;15.67;;
13267;SDS011;6702;47.068;15.458;2022-11-20T06:20:27;24.53;;;16.10;;
13267;SDS011;6702;47.068;15.458;2022-11-20T06:23:30;22.97;;;15.10;;
13267;SDS011;6702;47.068;15.458;2022-11-20T06:26:34;21.30;;;15.73;;
13267;SDS011;6702;47.068;15.458;2022-11-20T06:29:39;17.63;;;13.73;;
13267;SDS011;6702;47.068;15.458;2022-11-20T06:32:42;21.40;;;15.83;;
13267;SDS011;6702;47.068;15.458;2022-11-20T06:35:45;20.77;;;15.43;;
13267;SDS011;6702;47.068;15.458;2022-11-20T06:38:48;21.07;;;15.33;;
13267;SDS011;6702;47.068;15.458;2022-11-20T06:41:51;20.77;;;14.80;;
13267;SDS011;6702;47.068;15.458;2022-11-20T06:45:00;19.77;;;14.07;;
13267;SDS011;6702;47.068;15.458;2022-11-20T06:48:04;20.67;;;14.83;;
13267;SDS011;6702;47.068;15.458;2022-11-20T06:51:08;18.10;;;11.87;;
13267;SDS011;6702;47.068;15.458;2022-11-20T06:54:11;17.90;;;13.13;;
13267;SDS011;6702;47.068;15.458;2022-11-20T06:57:14;20.80;;;13.87;;
13267;SDS011;6702;47.068;15.458;2022-11-20T07:00:19;17.17;;;13.17;;
13267;SDS011;6702;47.068;15.458;2022-11-20T07:03:22;16.43;;;11.83;;
13267;SDS011;6702;47.068;15.458;2022-11-20T07:06:25;22.47;;;13.57;;
13267;SDS011;6702;47.068;15.458;2022-11-20T07:09:28;17.50;;;11.90;;
13267;SDS011;6702;47.068;15.458;2022-11-20T07:12:31;16.40;;;12.77;;
13267;SDS011;6702;47.068;15.458;2022-11-20T07:15:36;18.67;;;12.60;;
13267;SDS011;6702;47.068;15.458;2022-11-20T07:18:39;19.57;;;14.23;;
13267;SDS011;6702;47.068;15.458;2022-11-20T07:21:50;16.10;;;12.67;;
13267;SDS011;6702;47.068;15.458;2022-11-20T07:24:53;18.80;;;13.83;;
13267;SDS011;6702;47.068;15.458;2022-11-20T07:27:57;18.70;;;13.33;;
13267;SDS011;6702;47.068;15.458;2022-11-20T07:31:02;18.40;;;14.33;;
13267;SDS011;6702;47.068;15.458;2022-11-20T07:34:06;19.67;;;13.43;;
13267;SDS011;6702;47.068;15.458;2022-11-20T07:37:09;18.63;;;13.00;;
13267;SDS011;6702;47.068;15.458;2022-11-20T07:40:12;14.30;;;11.40;;
13267;SDS011;6702;47.068;15.458;2022-11-20T07:43:16;18.40;;;13.53;;
13267;SDS011;6702;47.068;15.458;2022-11-20T07:46:20;17.10;;;11.57;;
13267;SDS011;6702;47.068;15.458;2022-11-20T07:49:23;13.23;;;11.50;;
13267;SDS011;6702;47.068;15.458;2022-11-20T07:52:26;14.83;;;11.90;;
13267;SDS011;6702;47.068;15.458;2022-11-20T07:55:29;13.80;;;11.50;;
13267;SDS011;6702;47.068;15.458;2022-11-20T07:58:33;14.03;;;11.43;;
13267;SDS011;6702;47.068;15.458;2022-11-20T08:01:37;16.00;;;12.03;;
13267;SDS011;6702;47.068;15.458;2022-11-20T08:04:41;16.70;;;11.90;;
13267;SDS011;6702;47.068;15.458;2022-11-20T08:07:44;15.30;;;11.73;;
13267;SDS011;6702;47.068;15.458;2022-11-20T08:10:47;13.10;;;11.03;;
13267;SDS011;6702;47.068;15.458;2022-11-20T08:13:50;15.17;;;12.90;;
13267;SDS011;6702;47.068;15.458;2022-11-20T08:17:12;13.33;;;11.80;;
13267;SDS011;6702;47.068;15.458;2022-11-20T08:20:15;14.60;;;12.00;;
13267;SDS011;6702;47.068;15.458;2022-11-20T08:23:18;15.33;;;13.17;;
13267;SDS011;6702;47.068;15.458;2022-11-20T08:26:22;17.67;;;13.47;;
13267;SDS011;6702;47.068;15.458;2022-11-20T08:29:25;14.37;;;11.70;;
13267;SDS011;6702;47.068;15.458;2022-11-20T08:32:30;15.80;;;11.63;;
13267;SDS011;6702;47.068;15.458;2022-11-20T08:35:33;20.63;;;14.27;;
13267;SDS011;6702;47.068;15.458;2022-11-20T08:38:37;18.10;;;13.53;;
13267;SDS011;6702;47.068;15.458;2022-11-20T08:41:40;20.03;;;14.10;;
13267;SDS011;6702;47.068;15.458;2022-11-20T08:44:43;19.77;;;15.37;;
13267;SDS011;6702;47.068;15.458;2022-11-20T08:47:48;16.50;;;13.67;;
13267;SDS011;6702;47.068;15.458;2022-11-20T08:50:51;19.20;;;16.20;;
13267;SDS011;6702;47.068;15.458;2022-11-20T08:53:54;17.40;;;14.50;;
13267;SDS011;6702;47.068;15.458;2022-11-20T08:56:57;18.00;;;12.70;;
13267;SDS011;6702;47.068;15.458;2022-11-20T09:00:01;16.53;;;13.13;;
13267;SDS011;6702;47.068;15.458;2022-11-20T09:03:08;17.40;;;14.13;;
13267;SDS011;6702;47.068;15.458;2022-11-20T09:06:12;18.47;;;14.50;;
13267;SDS011;6702;47.068;15.458;2022-11-20T09:09:15;18.33;;;12.77;;
13267;SDS011;6702;47.068;15.458;2022-11-20T09:12:19;19.80;;;13.97;;
13267;SDS011;6702;47.068;15.458;2022-11-20T09:15:23;17.40;;;13.27;;
13267;SDS011;6702;47.068;15.458;2022-11-20T09:18:28;14.40;;;12.20;;
13267;SDS011;6702;47.068;15.458;2022-11-20T09:21:32;14.40;;;12.43;;
13267;SDS011;6702;47.068;15.458;2022-11-20T09:24:36;15.67;;;13.77;;
13267;SDS011;6702;47.068;15.458;2022-11-20T09:27:39;14.33;;;12.83;;
13267;SDS011;6702;47.068;15.458;2022-11-20T09:30:44;16.07;;;11.23;;
13267;SDS011;6702;47.068;15.458;2022-11-20T09:33:49;14.20;;;12.20;;
13267;SDS011;6702;47.068;15.458;2022-11-20T09:36:52;12.90;;;11.27;;
13267;SDS011;6702;47.068;15.458;2022-11-20T09:39:56;13.67;;;11.43;;
13267;SDS011;6702;47.068;15.458;2022-11-20T09:43:01;16.33;;;12.47;;
13267;SDS011;6702;47.068;15.458;2022-11-20T09:46:11;14.17;;;11.70;;
13267;SDS011;6702;47.068;15.458;2022-11-20T09:49:26;13.63;;;11.27;;
13267;SDS011;6702;47.068;15.458;2022-11-20T09:52:40;14.63;;;12.23;;
13267;SDS011;6702;47.068;15.458;2022-11-20T09:55:52;12.77;;;11.47;;
13267;SDS011;6702;47.068;15.458;2022-11-20T09:58:57;12.43;;;10.90;;
13267;SDS011;6702;47.068;15.458;2022-11-20T10:02:12;12.73;;;11.43;;
13267;SDS011;6702;47.068;15.458;2022-11-20T10:05:20;14.10;;;10.60;;
13267;SDS011;6702;47.068;15.458;2022-11-20T10:08:28;14.13;;;10.87;;
13267;SDS011;6702;47.068;15.458;2022-11-20T10:11:35;12.00;;;10.07;;
13267;SDS011;6702;47.068;15.458;2022-11-20T10:14:53;10.90;;;9.67;;
13267;SDS011;6702;47.068;15.458;2022-11-20T10:18:11;12.50;;;10.43;;
13267;SDS011;6702;47.068;15.458;2022-11-20T10:21:26;11.27;;;10.13;;
13267;SDS011;6702;47.068;15.458;2022-11-20T10:24:48;10.00;;;9.10;;
13267;SDS011;6702;47.068;15.458;2022-11-20T10:28:20;13.77;;;10.57;;
13267;SDS011;6702;47.068;15.458;2022-11-20T10:31:30;11.70;;;10.60;;
13267;SDS011;6702;47.068;15.458;2022-11-20T10:34:38;10.43;;;9.40;;
13267;SDS011;6702;47.068;15.458;2022-11-20T10:37:51;12.90;;;11.47;;
13267;SDS011;6702;47.068;15.458;2022-11-20T10:40:59;11.67;;;9.97;;
13267;SDS011;6702;47.068;15.458;2022-11-20T10:44:19;10.70;;;9.60;;
13267;SDS011;6702;47.068;15.458;2022-11-20T10:47:38;13.37;;;11.30;;
13267;SDS011;6702;47.068;15.458;2022-11-20T10:50:45;12.90;;;11.50;;
13267;SDS011;6702;47.068;15.458;2022-11-20T10:53:58;10.73;;;9.73;;
13267;SDS011;6702;47.068;15.458;2022-11-20T10:57:19;16.30;;;13.17;;
13267;SDS011;6702;47.068;15.458;2022-11-20T11:00:30;13.23;;;11.83;;
13267;SDS011;6702;47.068;15.458;2022-11-20T11:03:33;12.50;;;11.20;;
13267;SDS011;6702;47.068;15.458;2022-11-20T11:06:37;14.23;;;12.83;;
13267;SDS011;6702;47.068;15.458;2022-11-20T11:09:48;14.07;;;12.60;;
13267;SDS011;6702;47.068;15.458;2022-11-20T11:12:52;16.97;;;15.37;;
13267;SDS011;6702;47.068;15.458;2022-11-20T11:15:56;17.97;;;15.53;;
13267;SDS011;6702;47.068;15.458;2022-11-20T11:19:03;26.47;;;21.60;;
13267;SDS011;6702;47.068;15.458;2022-11-20T11:22:09;17.80;;;16.00;;
13267;SDS011;6702;47.068;15.458;2022-11-20T11:25:25;27.00;;;21.23;;
13267;SDS011;6702;47.068;15.458;2022-11-20T11:28:30;28.00;;;23.80;;
13267;SDS011;6702;47.068;15.458;2022-11-20T11:31:34;27.03;;;22.00;;
13267;SDS011;6702;47.068;15.458;2022-11-20T11:34:38;31.50;;;24.90;;
13267;SDS011;6702;47.068;15.458;2022-11-20T11:37:41;24.20;;;18.70;;
13267;SDS011;6702;47.068;15.458;2022-11-20T11:40:46;17.60;;;15.77;;
13267;SDS011;6702;47.068;15.458;2022-11-20T11:43:50;20.10;;;17.57;;
13267;SDS011;6702;47.068;15.458;2022-11-20T11:47:17;17.10;;;15.40;;
13267;SDS011;6702;47.068;15.458;2022-11-20T11:50:24;14.17;;;12.70;;
13267;SDS011;6702;47.068;15.458;2022-11-20T11:53:29;13.10;;;11.80;;
13267;SDS011;6702;47.068;15.458;2022-11-20T11:56:34;14.30;;;13.10;;
13267;SDS011;6702;47.068;15.458;2022-11-20T11:59:41;14.93;;;13.63;;
13267;SDS011;6702;47.068;15.458;2022-11-20T12:02:54;14.03;;;12.83;;
13267;SDS011;6702;47.068;15.458;2022-11-20T12:06:09;12.67;;;11.57;;
13267;SDS011;6702;47.068;15.458;2022-11-20T12:09:15;15.23;;;14.02;;
13267;SDS011;6702;47.068;15.458;2022-11-20T12:12:24;12.77;;;11.70;;
13267;SDS011;6702;47.068;15.458;2022-11-20T12:15:33;13.68;;;12.57;;
13267;SDS011;6702;47.068;15.458;2022-11-20T12:18:37;12.43;;;11.30;;
13267;SDS011;6702;47.068;15.458;2022-11-20T12:21:45;12.55;;;11.60;;
13267;SDS011;6702;47.068;15.458;2022-11-20T12:25:04;13.40;;;12.27;;
13267;SDS011;6702;47.068;15.458;2022-11-20T12:28:16;9.98;;;9.15;;
13267;SDS011;6702;47.068;15.458;2022-11-20T12:31:37;8.95;;;8.25;;
13267;SDS011;6702;47.068;15.458;2022-11-20T12:34:58;8.38;;;7.68;;
13267;SDS011;6702;47.068;15.458;2022-11-20T12:38:19;8.15;;;7.30;;
13267;SDS011;6702;47.068;15.458;2022-11-20T12:41:57;16.40;;;14.90;;
13267;SDS011;6702;47.068;15.458;2022-11-20T12:49:29;7.75;;;7.15;;
13267;SDS011;6702;47.068;15.458;2022-11-20T12:52:41;7.50;;;6.90;;
13267;SDS011;6702;47.068;15.458;2022-11-20T12:55:52;7.75;;;7.13;;
13267;SDS011;6702;47.068;15.458;2022-11-20T12:59:07;6.85;;;6.30;;
13267;SDS011;6702;47.068;15.458;2022-11-20T13:02:27;6.78;;;6.18;;
13267;SDS011;6702;47.068;15.458;2022-11-20T13:05:40;5.90;;;5.40;;
13267;SDS011;6702;47.068;15.458;2022-11-20T13:08:53;6.60;;;6.10;;
13267;SDS011;6702;47.068;15.458;2022-11-20T13:12:01;6.10;;;5.60;;
13267;SDS011;6702;47.068;15.458;2022-11-20T13:15:09;6.53;;;5.93;;
13267;SDS011;6702;47.068;15.458;2022-11-20T13:18:26;5.10;;;4.70;;
13267;SDS011;6702;47.068;15.458;2022-11-20T13:21:44;6.30;;;5.40;;
13267;SDS011;6702;47.068;15.458;2022-11-20T13:24:50;4.67;;;4.27;;
13267;SDS011;6702;47.068;15.458;2022-11-20T13:27:54;5.07;;;4.67;;
13267;SDS011;6702;47.068;15.458;2022-11-20T13:31:00;5.03;;;4.63;;
13267;SDS011;6702;47.068;15.458;2022-11-20T13:34:05;4.57;;;4.00;;
13267;SDS011;6702;47.068;15.458;2022-11-20T13:37:24;4.30;;;3.90;;
13267;SDS011;6702;47.068;15.458;2022-11-20T13:40:31;5.27;;;4.80;;
13267;SDS011;6702;47.068;15.458;2022-11-20T13:43:37;5.40;;;4.90;;
13267;SDS011;6702;47.068;15.458;2022-11-20T13:46:44;4.80;;;4.40;;
13267;SDS011;6702;47.068;15.458;2022-11-20T13:49:49;5.80;;;5.40;;
13267;SDS011;6702;47.068;15.458;2022-11-20T13:52:59;5.10;;;4.70;;
13267;SDS011;6702;47.068;15.458;2022-11-20T13:56:09;5.30;;;4.80;;
13267;SDS011;6702;47.068;15.458;2022-11-20T13:59:24;5.07;;;4.67;;
13267;SDS011;6702;47.068;15.458;2022-11-20T14:02:43;5.47;;;5.03;;
13267;SDS011;6702;47.068;15.458;2022-11-20T14:05:49;4.47;;;4.10;;
13267;SDS011;6702;47.068;15.458;2022-11-20T14:08:57;5.47;;;4.90;;
13267;SDS011;6702;47.068;15.458;2022-11-20T14:12:02;5.90;;;5.40;;
13267;SDS011;6702;47.068;15.458;2022-11-20T14:15:24;4.70;;;4.30;;
13267;SDS011;6702;47.068;15.458;2022-11-20T14:18:30;4.80;;;4.13;;
13267;SDS011;6702;47.068;15.458;2022-11-20T14:21:34;5.90;;;5.40;;
13267;SDS011;6702;47.068;15.458;2022-11-20T14:24:39;5.90;;;5.40;;
13267;SDS011;6702;47.068;15.458;2022-11-20T14:27:44;5.67;;;5.17;;
13267;SDS011;6702;47.068;15.458;2022-11-20T14:30:54;6.17;;;5.47;;
13267;SDS011;6702;47.068;15.458;2022-11-20T14:33:59;4.40;;;4.00;;
13267;SDS011;6702;47.068;15.458;2022-11-20T14:37:11;5.30;;;4.87;;
13267;SDS011;6702;47.068;15.458;2022-11-20T14:40:23;5.67;;;5.20;;
13267;SDS011;6702;47.068;15.458;2022-11-20T14:43:31;6.57;;;4.97;;
13267;SDS011;6702;47.068;15.458;2022-11-20T14:46:37;5.63;;;5.13;;
13267;SDS011;6702;47.068;15.458;2022-11-20T14:49:42;6.37;;;5.73;;
13267;SDS011;6702;47.068;15.458;2022-11-20T14:52:50;8.60;;;5.50;;
13267;SDS011;6702;47.068;15.458;2022-11-20T14:55:59;6.43;;;5.83;;
13267;SDS011;6702;47.068;15.458;2022-11-20T14:59:05;5.90;;;5.30;;
13267;SDS011;6702;47.068;15.458;2022-11-20T15:02:10;6.17;;;5.63;;
13267;SDS011;6702;47.068;15.458;2022-11-20T15:05:15;7.73;;;6.97;;
13267;SDS011;6702;47.068;15.458;2022-11-20T15:08:25;10.80;;;9.80;;
13267;SDS011;6702;47.068;15.458;2022-11-20T15:11:32;16.83;;;15.50;;
13267;SDS011;6702;47.068;15.458;2022-11-20T15:14:38;15.77;;;14.20;;
13267;SDS011;6702;47.068;15.458;2022-11-20T15:17:43;11.03;;;9.93;;
13267;SDS011;6702;47.068;15.458;2022-11-20T15:20:47;8.40;;;7.07;;
13267;SDS011;6702;47.068;15.458;2022-11-20T15:23:52;8.20;;;7.40;;
13267;SDS011;6702;47.068;15.458;2022-11-20T15:26:57;9.60;;;8.70;;
13267;SDS011;6702;47.068;15.458;2022-11-20T15:30:02;8.03;;;7.20;;
13267;SDS011;6702;47.068;15.458;2022-11-20T15:33:15;7.77;;;7.07;;
13267;SDS011;6702;47.068;15.458;2022-11-20T15:36:20;8.47;;;7.60;;
13267;SDS011;6702;47.068;15.458;2022-11-20T15:39:24;11.20;;;10.20;;
13267;SDS011;6702;47.068;15.458;2022-11-20T15:42:30;9.17;;;8.37;;
13267;SDS011;6702;47.068;15.458;2022-11-20T15:45:36;9.37;;;8.30;;
13267;SDS011;6702;47.068;15.458;2022-11-20T15:48:43;10.30;;;9.37;;
13267;SDS011;6702;47.068;15.458;2022-11-20T15:51:49;9.83;;;9.00;;
13267;SDS011;6702;47.068;15.458;2022-11-20T15:54:54;11.50;;;9.53;;
13267;SDS011;6702;47.068;15.458;2022-11-20T15:58:01;10.33;;;9.30;;
13267;SDS011;6702;47.068;15.458;2022-11-20T16:01:08;11.70;;;10.50;;
13267;SDS011;6702;47.068;15.458;2022-11-20T16:04:15;12.53;;;11.30;;
13267;SDS011;6702;47.068;15.458;2022-11-20T16:07:20;14.43;;;12.93;;
13267;SDS011;6702;47.068;15.458;2022-11-20T16:10:24;13.53;;;12.23;;
13267;SDS011;6702;47.068;15.458;2022-11-20T16:13:30;11.93;;;10.63;;
13267;SDS011;6702;47.068;15.458;2022-11-20T16:16:53;12.70;;;11.40;;
13267;SDS011;6702;47.068;15.458;2022-11-20T16:19:57;11.93;;;10.17;;
13267;SDS011;6702;47.068;15.458;2022-11-20T16:23:02;14.87;;;12.97;;
13267;SDS011;6702;47.068;15.458;2022-11-20T16:26:10;14.27;;;12.87;;
13267;SDS011;6702;47.068;15.458;2022-11-20T16:29:18;17.00;;;12.70;;
13267;SDS011;6702;47.068;15.458;2022-11-20T16:32:23;12.40;;;11.00;;
13267;SDS011;6702;47.068;15.458;2022-11-20T16:35:27;13.20;;;11.90;;
13267;SDS011;6702;47.068;15.458;2022-11-20T16:38:32;15.10;;;13.50;;
13267;SDS011;6702;47.068;15.458;2022-11-20T16:41:38;19.70;;;13.20;;
13267;SDS011;6702;47.068;15.458;2022-11-20T16:44:44;21.73;;;13.83;;
13267;SDS011;6702;47.068;15.458;2022-11-20T16:47:50;15.93;;;11.53;;
13267;SDS011;6702;47.068;15.458;2022-11-20T16:50:58;21.80;;;12.67;;
13267;SDS011;6702;47.068;15.458;2022-11-20T16:54:02;15.17;;;11.10;;
13267;SDS011;6702;47.068;15.458;2022-11-20T16:57:08;20.30;;;12.97;;
13267;SDS011;6702;47.068;15.458;2022-11-20T17:00:15;39.37;;;14.53;;
13267;SDS011;6702;47.068;15.458;2022-11-20T17:03:19;86.43;;;18.00;;
13267;SDS011;6702;47.068;15.458;2022-11-20T17:06:24;33.67;;;13.70;;
13267;SDS011;6702;47.068;15.458;2022-11-20T17:09:30;16.83;;;15.03;;
13267;SDS011;6702;47.068;15.458;2022-11-20T17:12:34;17.10;;;13.70;;
13267;SDS011;6702;47.068;15.458;2022-11-20T17:15:39;31.73;;;15.20;;
13267;SDS011;6702;47.068;15.458;2022-11-20T17:18:46;44.80;;;15.83;;
13267;SDS011;6702;47.068;15.458;2022-11-20T17:21:51;21.00;;;15.33;;
13267;SDS011;6702;47.068;15.458;2022-11-20T17:24:56;20.13;;;15.80;;
13267;SDS011;6702;47.068;15.458;2022-11-20T17:28:01;22.40;;;13.13;;
13267;SDS011;6702;47.068;15.458;2022-11-20T17:31:09;23.83;;;14.10;;
13267;SDS011;6702;47.068;15.458;2022-11-20T17:34:16;22.23;;;17.00;;
13267;SDS011;6702;47.068;15.458;2022-11-20T17:37:20;29.77;;;19.43;;
13267;SDS011;6702;47.068;15.458;2022-11-20T17:40:25;20.80;;;16.97;;
13267;SDS011;6702;47.068;15.458;2022-11-20T17:43:33;23.47;;;17.60;;
13267;SDS011;6702;47.068;15.458;2022-11-20T17:46:39;28.50;;;19.23;;
13267;SDS011;6702;47.068;15.458;2022-11-20T17:49:44;20.73;;;15.43;;
13267;SDS011;6702;47.068;15.458;2022-11-20T17:52:49;15.97;;;14.27;;
13267;SDS011;6702;47.068;15.458;2022-11-20T17:55:56;19.03;;;14.67;;
13267;SDS011;6702;47.068;15.458;2022-11-20T17:59:18;16.67;;;13.67;;
13267;SDS011;6702;47.068;15.458;2022-11-20T18:02:24;15.37;;;12.80;;
13267;SDS011;6702;47.068;15.458;2022-11-20T18:05:29;15.37;;;12.17;;
13267;SDS011;6702;47.068;15.458;2022-11-20T18:08:34;20.90;;;14.43;;
13267;SDS011;6702;47.068;15.458;2022-11-20T18:11:39;18.80;;;13.40;;
13267;SDS011;6702;47.068;15.458;2022-11-20T18:14:45;13.90;;;11.90;;
13267;SDS011;6702;47.068;15.458;2022-11-20T18:17:52;12.77;;;11.40;;
13267;SDS011;6702;47.068;15.458;2022-11-20T18:20:57;16.17;;;11.50;;